Tiempo atmosférico en la estación meteorológica de Estaca De Bares, A Coruña (80 m.)



Fecha
DESCASC
Temp. máxima en grados centígrados (hora)
DESCASC
Temp. mínima en grados centígrados (hora)
DESCASC
Temp. media en grados centígrados
DESCASC
Racha de viento máxima en m/sg (hora)
DESCASC
Velocidad máxima media en intervalos de 10 minutos(hora)
DESCASC
Precipitaciones diarias en mm
DESCASC
Precipitaciones de 00:00 a 06:00 en mm
DESCASC
Precipitaciones de 06:00 a 12:00 en mm
DESCASC
Precipitaciones de 12:00 a 18:00 en mm
DESCASC
Precipitaciones de 18:00 a 24:00 en mm
DESCASC
23-06-2019 22.4 (13:50) 15.6 (04:30) 19 13.33 (07:20) 9.44 (07:20) 2.8 2.8 0 0 0
22-06-2019 19.4 (12:00) 14 (05:50) 16.7 14.72 (00:20) 10.83 (00:30) 0 0 0 0 0
21-06-2019 18.2 (15:00) 14.3 (04:40) 16.3 14.44 (23:30) 11.94 (23:50) 0 0 0 0 0
20-06-2019 18.6 (15:00) 14.3 (00:00) 16.5 11.39 (23:50) 9.17 (23:00) 1.2 1.2 0 0 0
19-06-2019 19 (17:20) 15.2 (00:00) 17.1 19.72 (00:10) 14.44 (00:10) 1.2 0 1.2 0 0
18-06-2019 20.2 (21:00) 14.9 (00:00) 17.6 20 (23:59) 12.5 (23:59) 6.8 0 1.4 5.2 0.2
17-06-2019 17.8 (17:20) 14.9 (00:00) 16.3 8.89 (00:40) 6.39 (13:00) 0 0 0 0 0
16-06-2019 17.8 (14:20) 12.8 (00:00) 15.3 9.17 (21:20) 6.11 (18:50) 0 0 0 0 0
15-06-2019 18.9 (12:10) 12.5 (00:00) 15.7 15.28 (17:00) 12.78 (17:10) 0.6 0.6 0 0 0
14-06-2019 17.7 (14:50) 11.2 (00:00) 14.5 14.44 (18:50) 11.94 (18:50) 0 0 0 0 0
13-06-2019 18.7 (15:40) 11.4 (00:00) 15.1 6.11 (11:10) 3.61 (10:40) 0 0 0 0 0
12-06-2019 16.8 (20:30) 12.1 (00:00) 14.4 14.17 (01:00) 9.72 (05:20) 0.8 0.8 0 0 0
11-06-2019 17.8 (17:20) 11.2 (00:00) 14.5 12.22 (20:30) 8.33 (21:10) 1.8 1 0 0 0.8
10-06-2019 18 (14:50) 10.8 (00:00) 14.4 13.89 (13:20) 12.22 (13:20) 0 0 0 0 0
09-06-2019 16.3 (17:40) 11.6 (00:00) 13.9 9.72 (02:00) 6.94 (04:20) 2.8 0 2.8 0 0
08-06-2019 16.1 (13:10) 11.5 (00:00) 13.8 10.56 (03:50) 8.61 (03:50) 1 0 0 1 0
07-06-2019 16.5 (16:20) 10.5 (00:00) 13.5 33.33 (00:30) 25.83 (00:10) 3 3 0 0 0
06-06-2019 17.4 (18:00) 10.9 (00:00) 14.1 35.83 (23:50) 28.89 (22:30) 9.2 0 3.8 5.2 0.2
05-06-2019 17 (15:10) 11.1 (00:00) 14.1 20.28 (17:40) 18.06 (17:40) 3.6 2.6 1 0 0
04-06-2019 18 (16:20) 12.2 (00:00) 15.1 22.5 (08:50) 17.5 (08:50) 1.4 0 0.8 0 0.6
03-06-2019 16.6 (15:30) 13.2 (00:00) 14.9 8.89 (08:10) 6.67 (23:59) 6.2 4 2.2 0 0
02-06-2019 20 (14:10) 13.9 (00:00) 16.9 20 (16:50) 17.22 (16:50) 0.4 0 0 0 0.4
01-06-2019 23.1 (14:00) 15.2 (00:00) 19.2 14.17 (17:00) 9.17 (17:10) 0 0 0 0 0
31-05-2019 29.5 (20:10) 14.6 (00:00) 22.1 14.44 (04:10) 11.39 (13:40) 0 0 0 0 0
30-05-2019 17.9 (18:10) 13.6 (00:00) 15.8 13.61 (20:20) 11.67 (15:30) 0 0 0 0 0
29-05-2019 17.5 (14:20) 12.8 (00:00) 15.2 13.61 (21:00) 9.44 (15:30) 0 0 0 0 0
28-05-2019 17.8 (16:30) 13 (00:00) 15.4 7.78 (09:50) 4.72 (08:50) 0 0 0 0 0

Gráficas

Temp. máximas Temp. mínimas Temp. medias Precipitaciones Rachas de viento máximas Velocidades máximas media en intervalos de 10 minutos

Datos horarios

Fecha y hora oficial Temperatura (ºC) Velocidad del viento (km/h) Dirección del viento Racha (km/h) Dirección de racha Precipitación (mm) Presión (hPa) Tendencia (hPa) Humedad (%)
2019-06-26 23:00:00 16.7 21 Oeste 37 Oeste 0 1006.7 1.4 80
2019-06-26 22:00:00 16.8 24 Oeste 31 Oeste 0 1006.4 2.4 82
2019-06-26 21:00:00 18.1 23 Oeste 35 Oeste 0 1006 2.1 76
2019-06-26 20:00:00 18.4 33 Oeste 51 Oeste 0 1005.3 2.6 76
2019-06-26 19:00:00 18.5 44 Oeste 66 Oeste 0 1004 1.2 75
2019-06-26 18:00:00 18.8 49 Oeste 79 Oeste 0 1003.9 -0.3 71
2019-06-26 17:00:00 18.6 69 Oeste 82 Oeste 0 1002.7 -1.4 73
2019-06-26 16:00:00 18.7 66 Oeste 75 Oeste 0 1002.8 -1.1 75
2019-06-26 15:00:00 18.8 20 Noroeste 30 Noroeste 0 1004.2 0.5 81
2019-06-26 14:00:00 18.9 9 Este 31 Este 0 1004.1 0.7 90
2019-06-26 13:00:00 18.2 17 Este 33 Sudeste 0 1003.9 0.3 94
2019-06-26 12:00:00 17.5 21 Sudeste 43 Este 0 1003.7 0 95
2019-06-26 11:00:00 16.6 24 Este 37 Este 0 1003.4 -0.3 96
2019-06-26 10:00:00 16.4 24 Este 44 Este 0 1003.6 -0.4 95
2019-06-26 09:00:00 16.4 26 Este 40 Sudeste 0 1003.7 -0.8 95
2019-06-26 08:00:00 16.4 27 Este 44 Este 0 1003.7 -1.5 95
2019-06-26 07:00:00 16.4 27 Este 46 Este 0 1004 -1.2 95
2019-06-26 06:00:00 16.5 26 Este 41 Este 0 1004.5 -1.4 95
2019-06-26 05:00:00 16.4 23 Este 41 Este 0 1005.2 -1.4 95
2019-06-26 04:00:00 16.3 25 Este 37 Este 0 1005.2 -2.5 95
2019-06-26 03:00:00 16.5 22 Este 34 Este 0 1005.9 -1.4 95
2019-06-26 02:00:00 16.5 15 Este 27 Este 0 1006.6 -0.9 94
2019-06-26 01:00:00 16.6 21 Este 36 Este 0.2 1007.7 1.3 94
2019-06-26 00:00:00 16.6 23 Este 35 Este 0 1007.3 0.3 94
2019-06-25 23:00:00 16.7 18 Este 37 Este 0 1007.5 1.3 93
2019-06-25 22:00:00 16.6 27 Este 37 Este 0 1006.4 0.2 92
2019-06-25 21:00:00 16.9 28 Este 35 Sudeste 0 1007 0.6 90
2019-06-25 20:00:00 17.1 29 Este 38 Este 0 1006.2 -0.4 88
2019-06-25 19:00:00 17.3 31 Este 40 Sudeste 0 1006.2 -0.3 84
2019-06-25 18:00:00 18.6 30 Sudeste 41 Sudeste 0 1006.4 -0.2 79
2019-06-25 17:00:00 18.5 29 Este 38 Sudeste 0 1006.6 0.1 78
2019-06-25 16:00:00 19.2 23 Este 37 Este 0 1006.5 0.1 78
2019-06-25 15:00:00 18.4 21 Este 35 Este 0 1006.6 0.6 80
2019-06-25 14:00:00 18.4 22 Sudeste 39 Este 0 1006.5 0.6 81
2019-06-25 13:00:00 18.5 28 Este 37 Sudeste 0 1006.4 0.4 81
2019-06-25 12:00:00 18 23 Este 35 Sudeste 0 1006 0.4 83
2019-06-25 11:00:00 17.4 23 Sudeste 30 Sudeste 0 1005.9 0.4 79
2019-06-25 10:00:00 17.4 17 Este 23 Sudeste 0 1006 0.8 80
2019-06-25 09:00:00 16.9 20 Este 29 Este 0 1005.6 0.6 82
2019-06-25 08:00:00 15.5 12 Sudeste 24 Sudeste 0 1005.5 0.4 88
2019-06-25 07:00:00 15.4 21 Sudeste 24 Sudeste 0 1005.2 -0.1 88
2019-06-25 06:00:00 15.5 19 Sudeste 25 Sudeste 0 1005 -0.5 89
2019-06-25 05:00:00 15.5 10 Sudeste 22 Sudeste 0 1005.1 -0.5 89
2019-06-25 04:00:00 15.4 13 Sudeste 22 Sudeste 0 1005.3 -0.7 88
2019-06-25 03:00:00 15.6 12 Sudeste 15 Este 0 1005.5 -0.5 88
2019-06-25 02:00:00 15.6 13 Este 17 Sudeste 0 1005.6 -0.1 87
2019-06-25 01:00:00 15.7 11 Sudeste 17 Sudeste 0 1006 0.9 87
2019-06-25 00:00:00 15.6 10 Este 12 Este 0 1006 1.1 87
2019-06-24 23:00:00 16.1 5 Este 13 Este 0 1005.7 1.6 87
2019-06-24 22:00:00 16.4 5 Nordeste 11 Este 0 1005.1 0.8 88
2019-06-24 21:00:00 17.2 5 Norte 14 Este 0 1004.9 0.9 86
2019-06-24 20:00:00 17.5 13 Este 20 Este 0 1004.1 0.3 81
2019-06-24 19:00:00 18 11 Este 22 Sudeste 0 1004.3 0.6 80
2019-06-24 18:00:00 17.5 18 Sudeste 22 Sudeste 0 1004 0.2 82
2019-06-24 17:00:00 17.7 13 Este 21 Este 0 1003.8 0.2 79
2019-06-24 16:00:00 18 18 Sudeste 22 Sudeste 0 1003.7 0.2 77
2019-06-24 15:00:00 18.6 12 Este 21 Este 0 1003.8 0.7 78
2019-06-24 14:00:00 17.9 10 Este 18 Este 0 1003.6 0 79
2019-06-24 13:00:00 18.1 14 Este 20 Este 0 1003.5 0 80
2019-06-24 12:00:00 17.2 15 Este 22 Sudeste 0 1003.1 -0.1 83
2019-06-24 11:00:00 16.9 18 Sudeste 24 Sudeste 0 1003.6 1.1 82
2019-06-24 10:00:00 17.9 11 Sudeste 24 Sudeste 0 1003.5 0.9 78
2019-06-24 09:00:00 16.5 13 Sudeste 22 Sudeste 0 1003.2 1 80
2019-06-24 08:00:00 16.5 18 Sudeste 31 Sudeste 0 1002.5 -0.1 79
2019-06-24 07:00:00 16.6 16 Sudeste 26 Sudeste 0 1002.6 0 75
2019-06-24 06:00:00 16.8 16 Sudeste 28 Sudeste 0 1002.2 -0.8 72
2019-06-24 05:00:00 17 21 Sudeste 29 Sudeste 0 1002.6 -0.5 70
2019-06-24 04:00:00 17.4 21 Sudeste 31 Sudeste 0 1002.6 -0.7 71
2019-06-24 03:00:00 17.4 22 Sudeste 32 Sudeste 0 1003 -0.6 73
2019-06-24 02:00:00 17.5 24 Sudeste 34 Sudeste 0 1003.1 0 74
2019-06-24 01:00:00 17.2 21 Sudeste 30 Sudeste 0 1003.3 0.7 78
2019-06-24 00:00:00 16.9 13 Sudeste 23 Sudeste 0 1003.6 1.3 82
2019-06-23 23:00:00 17.1 11 Este 14 Sudeste 0 1003.1 1 81
2019-06-23 22:00:00 17.7 7 Este 10 Este 0 1002.6 0.9 77
2019-06-23 21:00:00 17.3 5 Este 10 Nordeste 0 1002.3 0.9 79
2019-06-23 20:00:00 17.9 5 Este 13 Este 0 1002.1 0.7 78
2019-06-23 19:00:00 19.1 7 Este 12 Este 0 1001.7 0.5 73
2019-06-23 18:00:00 19.9 7 Este 12 Este 0 1001.4 0.5 72
2019-06-23 17:00:00 19.1 5 Este 17 Este 0 1001.4 0.6 74
2019-06-23 16:00:00 19.5 10 Este 22 Este 0 1001.2 0.6 72
2019-06-23 15:00:00 19 11 Nordeste 26 Este 0 1000.9 0.6 74
2019-06-23 14:00:00 20.3 18 Este 26 Este 0 1000.8 0.8 66
2019-06-23 13:00:00 21 11 Sudoeste 26 Sudoeste 0 1000.6 0.9 63
2019-06-23 12:00:00 19.2 16 Oeste 31 Oeste 0 1000.3 1.1 68
2019-06-23 11:00:00 19.7 20 Oeste 31 Sudoeste 0 1000 1.2 70
2019-06-23 10:00:00 18.8 22 Oeste 30 Sudoeste 0 999.7 1 75
2019-06-23 09:00:00 17.3 25 Oeste 40 Sudoeste 0 999.2 0.4 77
2019-06-23 08:00:00 17.1 32 Sudoeste 48 Sudoeste 0 998.8 -0.1 76
2019-06-23 07:00:00 15.7 18 Oeste 29 Sudoeste 0 998.7 -0.7 80
2019-06-23 06:00:00 16.1 24 Oeste 41 Sudoeste 0.2 998.8 -0.7 78
2019-06-23 05:00:00 16.3 26 Sudoeste 43 Sur 0 998.9 -0.3 73
2019-06-23 04:00:00 15.8 20 Sudeste 34 Sur 0.6 999.4 -0.7 77
2019-06-23 03:00:00 16.7 22 Sur 31 Sudoeste 1.4 999.5 -0.5 72
2019-06-23 02:00:00 17.4 24 Sudeste 32 Sudeste 0.6 999.2 -1.2 67
2019-06-23 01:00:00 18.4 10 Sur 16 Sudoeste 0 1000.1 -0.1 65
2019-06-23 00:00:00 18.6 8 Sur 17 Sur 0 1000 -0.7 65
2019-06-22 23:00:00 18.6 17 Sur 26 Sudeste 0 1000.4 -0.4 68
2019-06-22 22:00:00 18.1 21 Sudeste 33 Sudeste 0 1000.2 -0.5 72
2019-06-22 21:00:00 17.6 19 Sudeste 36 Sudeste 0 1000.7 -0.3 68
2019-06-22 20:00:00 18.3 21 Sudeste 32 Sudeste 0 1000.8 -0.4 67
2019-06-22 19:00:00 17.9 21 Sudeste 30 Sudeste 0 1000.7 -0.7 66
2019-06-22 18:00:00 18.2 15 Sudeste 26 Sudeste 0 1001 -0.7 67
2019-06-22 17:00:00 19 16 Sudeste 22 Este 0 1001.2 -0.8 66
2019-06-22 16:00:00 17.9 15 Sudeste 18 Sudeste 0 1001.4 -0.8 69
2019-06-22 15:00:00 18.7 10 Este 19 Sudeste 0 1001.7 -0.8 69
2019-06-22 14:00:00 17.5 9 Sudeste 15 Sudeste 0 1002 -0.5 73
2019-06-22 13:00:00 18.3 11 Este 15 Este 0 1002.2 -0.6 71
2019-06-22 12:00:00 19 3 Norte 8 Nordeste 0 1002.5 -0.1 68
2019-06-22 11:00:00 16.9 2 Nordeste 12 Oeste 0 1002.5 -0.6 77
2019-06-22 10:00:00 16.9 3 Sudoeste 22 Sudeste 0 1002.8 -0.3 77
2019-06-22 09:00:00 15.4 13 Sudeste 29 Este 0 1002.6 -0.9 82
2019-06-22 08:00:00 14.7 20 Este 29 Este 0 1003.1 -0.8 83
2019-06-22 07:00:00 14.4 11 Este 17 Este 0 1003.1 -1.7 85
2019-06-22 06:00:00 14.2 12 Sudeste 32 Sudeste 0 1003.5 -2 86
2019-06-22 05:00:00 14.5 24 Sudeste 39 Sudeste 0 1003.9 -2.2 86
2019-06-22 04:00:00 14.7 28 Sudeste 43 Sudeste 0 1004.8 -2.1 85
2019-06-22 03:00:00 15 32 Sudeste 48 Sudeste 0 1005.5 -1.9 84
2019-06-22 02:00:00 15.4 33 Sudeste 51 Sudeste 0 1006.1 -2.1 82
2019-06-22 01:00:00 15.5 38 Sudeste 53 Sudeste 0 1006.9 -1.4 81
2019-06-22 00:00:00 15.6 41 Sudeste 52 Sudeste 0 1007.4 -0.9 80
2019-06-21 23:00:00 15.5 38 Sudeste 50 Sudeste 0 1008.2 -0.7 79
2019-06-21 22:00:00 15.6 39 Sudeste 51 Sudeste 0 1008.3 -0.6 78
2019-06-21 21:00:00 16.4 30 Este 48 Sudeste 0 1008.3 -1.2 74
2019-06-21 20:00:00 16.9 30 Este 48 Sudeste 0 1008.9 -0.5 71
2019-06-21 19:00:00 17.4 23 Este 41 Este 0 1008.9 -0.9 70
2019-06-21 18:00:00 18 20 Este 34 Este 0 1009.5 -0.4 67
2019-06-21 17:00:00 18 19 Este 33 Este 0 1009.4 -0.6 70
2019-06-21 16:00:00 17.9 23 Este 35 Este 0 1009.8 -0.3 71
2019-06-21 15:00:00 18.1 19 Este 41 Este 0 1009.9 -0.4 71
2019-06-21 14:00:00 17.8 24 Este 37 Sudeste 0 1010 0.1 71
2019-06-21 13:00:00 18 25 Este 45 Este 0 1010.1 0 67
2019-06-21 12:00:00 17.5 24 Este 41 Este 0 1010.3 0.5 71
2019-06-21 11:00:00 17.1 26 Este 41 Este 0 1009.9 0.4 70
2019-06-21 10:00:00 16.5 26 Este 44 Este 0 1010.1 0.8 71
2019-06-21 09:00:00 15.9 30 Este 40 Este 0 1009.8 0.7 74
2019-06-21 08:00:00 15.2 27 Este 36 Este 0 1009.5 0.4 77
2019-06-21 07:00:00 14.4 26 Este 33 Este 0 1009.3 0 82
2019-06-21 06:00:00 14.4 26 Este 36 Este 0 1009.1 0 83
2019-06-21 05:00:00 14.4 23 Este 33 Nordeste 0 1009.1 0 83
2019-06-21 04:00:00 14.5 27 Nordeste 36 Nordeste 0 1009.3 0 83
2019-06-21 03:00:00 14.6 28 Este 40 Este 0 1009.1 0.2 83
2019-06-21 02:00:00 14.7 32 Este 40 Este 0 1009.1 0.6 84
2019-06-21 01:00:00 14.8 30 Este 42 Nordeste 0 1009.3 1 84
2019-06-21 00:00:00 14.9 33 Este 41 Nordeste 0 1008.9 0.6 83
2019-06-20 23:00:00 14.9 33 Este 40 Nordeste 0 1008.5 0.3 83
2019-06-20 22:00:00 15.4 28 Este 37 Este 0 1008.3 0.2 80
2019-06-20 21:00:00 16.1 27 Este 37 Este 0 1008.3 0.4 77
2019-06-20 20:00:00 16.5 25 Este 35 Este 0 1008.2 0.1 76
2019-06-20 19:00:00 16.1 25 Este 34 Este 0 1008.1 -0.1 75
2019-06-20 18:00:00 16.9 24 Este 31 Este 0 1007.9 -0.2 74
2019-06-20 17:00:00 17.4 19 Este 26 Este 0 1008.1 -0.1 72
2019-06-20 16:00:00 17.8 21 Este 28 Este 0 1008.2 0 72
2019-06-20 15:00:00 18.6 20 Este 27 Nordeste 0 1008.1 0.1 73
2019-06-20 14:00:00 17.7 18 Este 25 Este 0 1008.2 0.5 75
2019-06-20 13:00:00 17.9 18 Este 24 Este 0 1008.2 0.5 75
2019-06-20 12:00:00 17.8 19 Este 27 Nordeste 0 1008 0.5 76
2019-06-20 11:00:00 16.2 20 Nordeste 25 Este 0 1007.7 0.3 80
2019-06-20 10:00:00 15.6 14 Nordeste 24 Nordeste 0 1007.7 0.5 83
2019-06-20 09:00:00 14.9 18 Nordeste 28 Nordeste 0 1007.5 0.7 86
2019-06-20 08:00:00 14.5 16 Este 23 Este 0 1007.4 0.4 88
2019-06-20 07:00:00 14.4 12 Nordeste 28 Nordeste 0 1007.2 0 89
2019-06-20 06:00:00 14.4 14 Nordeste 34 Norte 0 1006.8 -0.7 88
2019-06-20 05:00:00 14.4 15 Nordeste 32 Norte 0 1007 -0.4 90
2019-06-20 04:00:00 14.6 12 Nordeste 25 Nordeste 0.4 1007.2 -0.2 92
2019-06-20 03:00:00 14.7 10 Nordeste 16 Norte 0.6 1007.5 0.2 91
2019-06-20 02:00:00 14.8 8 Nordeste 15 Nordeste 0.2 1007.4 0.4 91
2019-06-20 01:00:00 15.1 9 Nordeste 17 Norte 0 1007.4 0.8 90
2019-06-20 00:00:00 15.2 8 Nordeste 20 Nordeste 0 1007.3 0.9 89
2019-06-19 23:00:00 15.7 5 Noroeste 15 Norte 0 1007 0.9 88
2019-06-19 22:00:00 15.9 7 Oeste 13 Noroeste 0 1006.6 1 87
2019-06-19 21:00:00 16.3 9 Oeste 15 Oeste 0 1006.4 1 86
2019-06-19 20:00:00 17 10 Oeste 20 Noroeste 0 1006.1 0.9 84
2019-06-19 19:00:00 16.7 18 Noroeste 23 Noroeste 0 1005.6 0.6 83
2019-06-19 18:00:00 18.3 20 Oeste 23 Oeste 0 1005.4 0.6 79
2019-06-19 17:00:00 18 19 Oeste 26 Noroeste 0 1005.2 0.6 84
2019-06-19 16:00:00 16.8 19 Oeste 23 Noroeste 0 1005 0.8 83
2019-06-19 15:00:00 17.5 17 Noroeste 21 Noroeste 0 1004.8 1 85
2019-06-19 14:00:00 17.8 13 Oeste 23 Oeste 0 1004.6 1.4 89
2019-06-19 13:00:00 15.9 22 Oeste 30 Oeste 0 1004.2 1.4 92
2019-06-19 12:00:00 15.7 13 Oeste 34 Oeste 1 1003.8 1.8 92
2019-06-19 11:00:00 15.3 30 Oeste 38 Oeste 0.2 1003.2 2.1 90
2019-06-19 10:00:00 15.6 29 Noroeste 53 Oeste 0 1002.8 2.3 86
2019-06-19 09:00:00 16.6 33 Oeste 48 Oeste 0 1002 2.1 78
2019-06-19 08:00:00 16.3 42 Oeste 54 Oeste 0 1001.1 1.1 76
2019-06-19 07:00:00 16 38 Oeste 56 Oeste 0 1000.5 0.5 78
2019-06-19 06:00:00 16.3 45 Sudoeste 54 Oeste 0 999.9 -0.1 77
2019-06-19 05:00:00 16.3 42 Oeste 50 Oeste 0 1000 0.1 79
2019-06-19 04:00:00 16.3 43 Oeste 52 Oeste 0 1000 0.2 80
2019-06-19 03:00:00 16.3 35 Oeste 56 Oeste 0 1000 1 80
2019-06-19 02:00:00 16.4 41 Oeste 51 Oeste 0 999.9 1 79
2019-06-19 01:00:00 17 45 Oeste 71 Sudoeste 0 999.8 0.9 76
2019-06-19 00:00:00 17.7 45 Oeste 72 Oeste 0 999 0.1 71
2019-06-18 23:00:00 18.8 37 Sudoeste 62 Sudoeste 0 998.9 0 62
2019-06-18 22:00:00 18.9 21 Sudoeste 58 Sudoeste 0.2 998.9 -0.1 62
2019-06-18 21:00:00 19.8 21 Sudoeste 41 Sudoeste 0 998.9 0.3 62
2019-06-18 20:00:00 18.6 5 Sur 21 Sudoeste 0 998.9 0.4 79
2019-06-18 19:00:00 19.1 4 Noroeste 40 Sur 0 999 0.3 83
2019-06-18 18:00:00 16.3 24 Sudeste 35 Sudeste 0.8 998.6 0.3 88
2019-06-18 17:00:00 15.9 13 Sudeste 17 Este 2.6 998.5 0 87
2019-06-18 16:00:00 16.2 10 Este 18 Este 1.8 998.7 -0.1 86
2019-06-18 15:00:00 16.8 13 Este 24 Este 0 998.3 -0.9 80
2019-06-18 14:00:00 17.2 19 Este 24 Este 0 998.5 -1.3 80
2019-06-18 13:00:00 17.5 15 Este 22 Nordeste 0 998.8 -1 85
2019-06-18 12:00:00 16.2 18 Este 23 Sudeste 0.2 999.2 -0.2 89
2019-06-18 11:00:00 15.6 16 Sudeste 20 Este 0 999.8 0.3 90
2019-06-18 10:00:00 15.7 8 Este 13 Este 0.4 999.8 0.6 90
2019-06-18 09:00:00 15.4 5 Nordeste 9 Sudeste 0.6 999.4 0.2 89
2019-06-18 08:00:00 15 3 Sudoeste 13 Oeste 0.2 999.5 -0.1 89
2019-06-18 07:00:00 15 8 Oeste 30 Oeste 0 999.2 -0.8 90
2019-06-18 06:00:00 15.1 13 Sudeste 21 Este 0 999.2 -1.6 89
2019-06-18 05:00:00 15.1 17 Este 27 Este 0 999.6 -2.4 89
2019-06-18 04:00:00 15.1 14 Este 28 Sudeste 0 1000 -2.6 87
2019-06-18 03:00:00 15.3 18 Sudeste 29 Sudeste 0 1000.8 -2.6 87
2019-06-18 02:00:00 15.1 18 Sudeste 28 Sudeste 0 1002 -1.1 88
2019-06-18 01:00:00 15.4 17 Sudeste 23 Este 0 1002.6 -0.3 88
2019-06-18 00:00:00 15.3 13 Sudeste 24 Este 0 1003.4 0.1 87
2019-06-17 23:00:00 15.3 19 Sudeste 27 Este 0 1003.1 -0.7 86
2019-06-17 22:00:00 15.4 19 Este 27 Sudeste 0 1002.9 -1 84
2019-06-17 21:00:00 15.7 17 Este 25 Este 0 1003.3 -1 82
2019-06-17 20:00:00 15.9 15 Este 24 Este 0 1003.8 -0.8 81
2019-06-17 19:00:00 16 17 Este 22 Este 0 1003.9 -0.9 81
2019-06-17 18:00:00 16.4 13 Este 22 Este 0 1004.3 -1.1 79
2019-06-17 17:00:00 17.4 16 Este 22 Este 0 1004.6 -0.7 78
2019-06-17 16:00:00 16.7 15 Este 21 Este 0 1004.8 -0.6 79
2019-06-17 15:00:00 16.6 11 Este 24 Este 0 1005.4 -0.1 80
2019-06-17 14:00:00 16.5 19 Este 28 Este 0 1005.3 -0.5 80
2019-06-17 13:00:00 16.5 23 Este 30 Este 0 1005.4 -0.6 80
2019-06-17 12:00:00 16.7 19 Este 26 Este 0 1005.5 -0.7 76
2019-06-17 11:00:00 16.4 18 Este 28 Este 0 1005.8 -0.6 78
2019-06-17 10:00:00 15.9 18 Este 25 Nordeste 0 1006 -0.7 78
2019-06-17 09:00:00 15.5 11 Nordeste 28 Este 0 1006.2 -0.3 78
2019-06-17 08:00:00 15 20 Este 25 Este 0 1006.4 -0.6 78
2019-06-17 07:00:00 15 11 Este 27 Este 0 1006.7 -0.4 76
2019-06-17 06:00:00 15 16 Este 26 Este 0 1006.5 -1.3 78
2019-06-17 05:00:00 15.1 14 Este 24 Este 0 1007 -1 80
2019-06-17 04:00:00 15.3 18 Este 27 Este 0 1007.1 -1.1 79
2019-06-17 03:00:00 15.4 14 Sudeste 30 Este 0 1007.8 -1 77
2019-06-17 02:00:00 15.3 19 Este 30 Este 0 1008 -1.1 76
2019-06-17 01:00:00 15 20 Este 32 Este 0 1008.2 -0.7 81
2019-06-17 00:00:00 15.3 18 Este 28 Este 0 1008.8 0 82
2019-06-16 23:00:00 15.2 17 Este 29 Este 0 1009.1 0.3 81
2019-06-16 22:00:00 15.4 22 Este 33 Este 0 1008.9 0 77
2019-06-16 21:00:00 16.3 21 Este 28 Este 0 1008.8 -0.4 71
2019-06-16 20:00:00 16.6 20 Este 29 Este 0 1008.8 -0.5 69
2019-06-16 19:00:00 16.9 20 Este 27 Nordeste 0 1008.9 -0.4 70
2019-06-16 18:00:00 17 19 Este 27 Este 0 1009.2 -0.1 70
2019-06-16 17:00:00 17 20 Nordeste 29 Este 0 1009.3 -0.2 69
2019-06-16 16:00:00 17.1 19 Nordeste 27 Este 0 1009.3 -0.3 70
2019-06-16 15:00:00 17.5 20 Este 27 Nordeste 0 1009.3 -0.6 72
2019-06-16 14:00:00 17.2 21 Nordeste 26 Este 0 1009.5 -0.5 70
2019-06-16 13:00:00 16.7 19 Nordeste 24 Nordeste 0 1009.6 -0.4 72
2019-06-16 12:00:00 16.8 16 Este 19 Este 0 1009.9 -0.1 74
2019-06-16 11:00:00 16.2 10 Este 15 Este 0 1010 0.1 74
2019-06-16 10:00:00 15.8 9 Este 14 Este 0 1010 0.3 72
2019-06-16 09:00:00 15.1 5 Nordeste 8 Este 0 1010 0.2 72
2019-06-16 08:00:00 14 3 Nordeste 7 Oeste 0 1009.9 -0.1 74
2019-06-16 07:00:00 13.1 3 Oeste 7 Sudoeste 0 1009.7 -0.8 74
2019-06-16 06:00:00 13 4 Sur 10 Sudeste 0 1009.8 -1 72
2019-06-16 05:00:00 12.9 3 Sudeste 9 Sudoeste 0 1010 -1.1 71
2019-06-16 04:00:00 13.7 9 Sudoeste 13 Oeste 0 1010.5 -1.1 76
2019-06-16 03:00:00 14.4 7 Sudoeste 16 Sudoeste 0 1010.8 -0.4 65
2019-06-16 02:00:00 13.9 11 Sudoeste 18 Sur 0 1011.1 0 65
2019-06-16 01:00:00 13.4 12 Sur 24 Oeste 0 1011.6 0.9 72
2019-06-16 00:00:00 14.3 24 Oeste 30 Oeste 0 1011.2 0.6 72
2019-06-15 23:00:00 14.4 21 Oeste 25 Oeste 0 1011.1 0.5 71
2019-06-15 22:00:00 15.2 21 Oeste 33 Oeste 0 1010.7 0.4 67
2019-06-15 21:00:00 16.7 28 Oeste 40 Oeste 0 1010.6 0 67
2019-06-15 20:00:00 16 35 Oeste 44 Oeste 0 1010.6 0.4 71
2019-06-15 19:00:00 15.9 40 Oeste 50 Oeste 0 1010.3 0 69
2019-06-15 18:00:00 15.9 38 Oeste 53 Oeste 0 1010.6 0.7 65
2019-06-15 17:00:00 16.8 44 Oeste 55 Oeste 0 1010.2 0.2 65
2019-06-15 16:00:00 17.6 40 Oeste 53 Oeste 0 1010.3 0.3 66
2019-06-15 15:00:00 15.9 44 Oeste 51 Oeste 0 1009.9 0.2 67
2019-06-15 14:00:00 16.3 36 Oeste 52 Oeste 0 1010 0.7 64
2019-06-15 13:00:00 17.5 22 Oeste 32 Oeste 0 1010 1 67
2019-06-15 12:00:00 18.4 28 Oeste 44 Oeste 0 1009.7 1.5 59
2019-06-15 11:00:00 16.6 32 Oeste 42 Oeste 0 1009.3 1.5 68
2019-06-15 10:00:00 14.3 32 Oeste 51 Sudoeste 0 1009 1.5 75
2019-06-15 09:00:00 13.5 33 Oeste 49 Oeste 0 1008.2 1.1 77
2019-06-15 08:00:00 13.6 37 Oeste 49 Oeste 0 1007.8 0.8 76
2019-06-15 07:00:00 12.6 33 Sudoeste 47 Sudoeste 0 1007.5 0.3 81
2019-06-15 06:00:00 12.8 33 Oeste 42 Oeste 0 1007.1 -0.2 82
2019-06-15 05:00:00 13 30 Oeste 39 Sudoeste 0 1007 -0.2 83
2019-06-15 04:00:00 13.1 32 Oeste 37 Oeste 0.6 1007.2 0.2 84
2019-06-15 03:00:00 13.6 30 Oeste 42 Oeste 0 1007.3 0.4 81
2019-06-15 02:00:00 14.1 29 Oeste 41 Oeste 0 1007.2 0.6 76
2019-06-15 01:00:00 14.1 31 Oeste 43 Oeste 0 1007 1.3 75
2019-06-15 00:00:00 14.3 22 Oeste 33 Oeste 0 1006.9 1.7 74
2019-06-14 23:00:00 14.5 27 Oeste 38 Oeste 0 1006.6 1.6 73
2019-06-14 22:00:00 14.6 34 Oeste 40 Oeste 0 1005.7 1.3 73
2019-06-14 21:00:00 15.2 37 Oeste 48 Oeste 0 1005.2 1 73
2019-06-14 20:00:00 16.9 41 Oeste 46 Oeste 0 1005 0.8 64
2019-06-14 19:00:00 16.9 42 Oeste 52 Noroeste 0 1004.4 0 63
2019-06-14 18:00:00 17 36 Oeste 42 Noroeste 0 1004.2 0 61
2019-06-14 17:00:00 16.4 22 Noroeste 30 Oeste 0 1004.2 0 65
2019-06-14 16:00:00 17.4 14 Noroeste 29 Oeste 0 1004.4 0.3 61
2019-06-14 15:00:00 17.2 18 Oeste 23 Noroeste 0 1004.2 0.3 65
2019-06-14 14:00:00 17 11 Noroeste 19 Noroeste 0 1004.2 0.4 64
2019-06-14 13:00:00 16.8 12 Oeste 18 Oeste 0 1004.1 0.6 65
2019-06-14 12:00:00 15.9 9 Noroeste 15 Oeste 0 1003.9 0.7 65
2019-06-14 11:00:00 17.3 10 Oeste 13 Oeste 0 1003.8 0.6 65
2019-06-14 10:00:00 15.2 5 Oeste 10 Oeste 0 1003.5 0.6 71
2019-06-14 09:00:00 14.2 6 Oeste 10 Noroeste 0 1003.2 0.6 74
2019-06-14 08:00:00 12.6 5 Oeste 8 Oeste 0 1003.2 0.7 73
2019-06-14 07:00:00 11.6 5 Sudoeste 9 Oeste 0 1002.9 0.1 77
2019-06-14 06:00:00 11.3 8 Oeste 12 Oeste 0 1002.6 -0.3 78
2019-06-14 05:00:00 11.3 9 Oeste 14 Oeste 0 1002.5 -0.7 79
2019-06-14 04:00:00 11.8 4 Sudoeste 7 Sudeste 0 1002.8 -0.9 74
2019-06-14 03:00:00 11.9 3 Sudoeste 9 Sudoeste 0 1002.9 -0.9 75
2019-06-14 02:00:00 12.6 4 Este 9 Sudeste 0 1003.2 -0.4 71
2019-06-14 01:00:00 12.4 8 Sudeste 10 Sudeste 0 1003.7 0.3 71
2019-06-14 00:00:00 12.7 8 Sudeste 12 Sudeste 0 1003.8 0.7 69
2019-06-13 23:00:00 13.2 9 Este 11 Este 0 1003.6 0.7 68
2019-06-13 22:00:00 14.3 6 Este 10 Este 0 1003.4 0.6 61
2019-06-13 21:00:00 15.6 5 Nordeste 11 Nordeste 0 1003.1 0.6 57
2019-06-13 20:00:00 16.3 4 Nordeste 16 Oeste 0 1002.9 0.4 57
2019-06-13 19:00:00 17.7 11 Oeste 19 Oeste 0 1002.8 0.1 54
2019-06-13 18:00:00 16.9 10 Noroeste 20 Oeste 0 1002.5 0 55
2019-06-13 17:00:00 18.4 5 Oeste 15 Oeste 0 1002.5 0 55
2019-06-13 16:00:00 16.6 5 Norte 14 Noroeste 0 1002.7 0.4 61
2019-06-13 15:00:00 17.6 6 Oeste 15 Noroeste 0 1002.5 0.2 63
2019-06-13 14:00:00 15.6 6 Norte 17 Noroeste 0 1002.5 0.3 71
2019-06-13 13:00:00 14.4 8 Noroeste 19 Noroeste 0 1002.3 0.3 69
2019-06-13 12:00:00 15.1 9 Noroeste 22 Oeste 0 1002.3 0.4 68
2019-06-13 11:00:00 14.9 13 Oeste 18 Oeste 0 1002.2 0.5 69
2019-06-13 10:00:00 15.7 7 Oeste 11 Oeste 0 1002 0.2 72
2019-06-13 09:00:00 13.4 7 Oeste 11 Oeste 0 1001.9 0.2 76
2019-06-13 08:00:00 12.1 5 Oeste 13 Oeste 0 1001.7 -0.2 78
2019-06-13 07:00:00 11.9 5 Oeste 9 Sudoeste 0 1001.8 -0.3 78
2019-06-13 06:00:00 11.6 6 Sudoeste 16 Oeste 0 1001.7 -0.7 81
2019-06-13 05:00:00 11.6 10 Oeste 15 Oeste 0 1001.9 -1.1 80
2019-06-13 04:00:00 11.7 4 Sudoeste 15 Oeste 0 1002.1 -1.3 79
2019-06-13 03:00:00 12.1 3 Oeste 8 Oeste 0 1002.4 -1.4 75
2019-06-13 02:00:00 12.5 0 Calma 6 Norte 0 1003 -1.1 73
2019-06-13 01:00:00 12.6 2 Este 9 Norte 0 1003.4 -0.5 70
2019-06-13 00:00:00 13 5 Norte 9 Norte 0 1003.8 0 69
2019-06-12 23:00:00 13.1 6 Norte 13 Noroeste 0 1004.1 0.1 69
2019-06-12 22:00:00 14.3 6 Noroeste 16 Oeste 0 1003.9 -0.3 66
2019-06-12 21:00:00 16.4 9 Noroeste 19 Noroeste 0 1003.8 -0.8 58
2019-06-12 20:00:00 15.9 10 Noroeste 25 Noroeste 0 1004 -0.8 62
2019-06-12 19:00:00 15 12 Noroeste 28 Oeste 0 1004.2 -0.6 65
2019-06-12 18:00:00 14.7 15 Noroeste 28 Noroeste 0 1004.6 -0.3 63
2019-06-12 17:00:00 16.1 24 Noroeste 35 Oeste 0 1004.8 -0.4 57
2019-06-12 16:00:00 16.4 26 Noroeste 37 Noroeste 0 1004.8 -0.7 59
2019-06-12 15:00:00 15.6 24 Noroeste 36 Noroeste 0 1004.9 -0.7 62
2019-06-12 14:00:00 15.4 26 Noroeste 37 Noroeste 0 1005.2 -0.3 60
2019-06-12 13:00:00 15.8 27 Oeste 35 Noroeste 0 1005.5 -0.2 60
2019-06-12 12:00:00 16.1 28 Oeste 33 Noroeste 0 1005.6 -0.2 59
2019-06-12 11:00:00 14.8 28 Oeste 36 Noroeste 0 1005.5 -0.2 63
2019-06-12 10:00:00 13.5 25 Oeste 33 Oeste 0 1005.7 0.1 72
2019-06-12 09:00:00 13.3 22 Oeste 33 Noroeste 0 1005.8 0 73
2019-06-12 08:00:00 12.9 26 Noroeste 41 Noroeste 0 1005.7 -0.2 70
2019-06-12 07:00:00 12.4 25 Noroeste 36 Noroeste 0 1005.6 -0.9 71
2019-06-12 06:00:00 12.3 15 Noroeste 42 Noroeste 0 1005.8 -1.4 75
2019-06-12 05:00:00 12.8 27 Noroeste 47 Noroeste 0 1005.9 -1.4 69
2019-06-12 04:00:00 12.9 30 Noroeste 47 Noroeste 0 1006.5 -1.4 70
2019-06-12 03:00:00 12.7 16 Noroeste 50 Oeste 0 1007.2 -1.2 74
2019-06-12 02:00:00 13.4 32 Noroeste 47 Noroeste 0.4 1007.3 -1.7 78
2019-06-12 01:00:00 13.4 33 Noroeste 51 Noroeste 0.4 1007.9 -1.1 77
2019-06-12 00:00:00 13.5 27 Noroeste 40 Noroeste 0 1008.4 -0.9 74
2019-06-11 23:00:00 13.2 13 Noroeste 40 Noroeste 0 1009 -0.4 75
2019-06-11 22:00:00 13.7 16 Noroeste 44 Noroeste 0.2 1009 -0.8 76
2019-06-11 21:00:00 13.7 12 Noroeste 44 Noroeste 0.6 1009.3 -0.4 76
2019-06-11 20:00:00 15.8 21 Noroeste 37 Noroeste 0 1009.4 -0.7 64
2019-06-11 19:00:00 16.7 14 Noroeste 42 Noroeste 0 1009.8 -0.2 61
2019-06-11 18:00:00 16.7 17 Noroeste 35 Norte 0 1009.7 -0.6 63
2019-06-11 17:00:00 17.4 12 Noroeste 36 Oeste 0 1010.1 -0.5 59
2019-06-11 16:00:00 17 14 Noroeste 37 Noroeste 0 1010 -0.6 61
2019-06-11 15:00:00 16.7 11 Noroeste 32 Oeste 0 1010.3 0.1 60
2019-06-11 14:00:00 15.8 14 Norte 38 Norte 0 1010.6 0.8 65
2019-06-11 13:00:00 15.2 17 Norte 39 Norte 0 1010.6 1.2 67
2019-06-11 12:00:00 14.5 17 Noroeste 37 Norte 0 1010.2 1 69
2019-06-11 11:00:00 14.4 16 Norte 30 Norte 0 1009.8 1 66
2019-06-11 10:00:00 13.5 18 Norte 32 Nordeste 0 1009.4 1 67
2019-06-11 09:00:00 13.5 18 Norte 33 Noroeste 0 1009.2 1.1 64
2019-06-11 08:00:00 12.8 22 Norte 37 Norte 0 1008.8 0.7 65
2019-06-11 07:00:00 12.4 19 Norte 38 Norte 0 1008.4 -0.2 69
2019-06-11 06:00:00 12.5 22 Norte 42 Norte 0 1008.1 -0.4 68
2019-06-11 05:00:00 12.7 23 Norte 36 Norte 0 1008.1 -0.7 72
2019-06-11 04:00:00 12.2 11 Noroeste 32 Norte 0 1008.6 -0.4 81
2019-06-11 03:00:00 11.4 26 Norte 38 Norte 0.6 1008.5 -0.7 81
2019-06-11 02:00:00 12.7 15 Noroeste 31 Noroeste 0.4 1008.8 -0.3 77
2019-06-11 01:00:00 13 14 Norte 27 Noroeste 0 1009 0.4 72
2019-06-11 00:00:00 13 12 Norte 25 Norte 0 1009.2 0.6 78
2019-06-10 23:00:00 13 14 Norte 30 Norte 0 1009.1 0.4 80
2019-06-10 22:00:00 14.2 14 Noroeste 28 Oeste 0 1008.6 -0.2 73
2019-06-10 21:00:00 14.1 21 Noroeste 33 Oeste 0 1008.6 -0.3 68
2019-06-10 20:00:00 14.3 27 Noroeste 40 Oeste 0 1008.7 -0.5 68
2019-06-10 19:00:00 14.6 30 Noroeste 44 Noroeste 0 1008.8 -0.6 67
2019-06-10 18:00:00 16.5 27 Oeste 36 Noroeste 0 1008.9 -0.9 64
2019-06-10 17:00:00 16.4 32 Oeste 40 Noroeste 0 1009.2 -1 64
2019-06-10 16:00:00 16.3 28 Noroeste 39 Noroeste 0 1009.4 -1 64
2019-06-10 15:00:00 17.9 31 Oeste 36 Oeste 0 1009.8 -0.8 64
2019-06-10 14:00:00 16.8 30 Oeste 50 Oeste 0 1010.2 -0.5 67
2019-06-10 13:00:00 16.1 32 Oeste 41 Oeste 0 1010.4 -0.3 67
2019-06-10 12:00:00 17.6 21 Oeste 28 Oeste 0 1010.6 -0.2 65
2019-06-10 11:00:00 16.5 19 Oeste 23 Oeste 0 1010.7 0.2 68
2019-06-10 10:00:00 15.1 16 Oeste 22 Sudoeste 0 1010.7 0 71
2019-06-10 09:00:00 13.5 19 Oeste 23 Oeste 0 1010.8 0.1 77
2019-06-10 08:00:00 11.9 18 Oeste 21 Oeste 0 1010.5 -0.3 78
2019-06-10 07:00:00 11.3 11 Oeste 16 Oeste 0 1010.7 -0.5 80
2019-06-10 06:00:00 11.3 10 Oeste 16 Oeste 0 1010.7 -0.5 81
2019-06-10 05:00:00 11.2 8 Oeste 12 Oeste 0 1010.8 -0.9 81
2019-06-10 04:00:00 11 12 Oeste 17 Oeste 0 1011.2 -1 84
2019-06-10 03:00:00 11.5 6 Oeste 12 Sur 0 1011.2 -1.2 79
2019-06-10 02:00:00 11.8 8 Sudeste 13 Sudeste 0 1011.7 -0.5 78
2019-06-10 01:00:00 12.2 11 Sudeste 16 Este 0 1012.2 0.5 76
2019-06-10 00:00:00 12.4 10 Este 19 Este 0 1012.4 0.9 74
2019-06-09 23:00:00 12.6 11 Este 18 Este 0 1012.2 1 72
2019-06-09 22:00:00 13.1 12 Este 22 Este 0 1011.7 0.5 70
2019-06-09 21:00:00 14.5 14 Este 22 Este 0 1011.5 0.4 67
2019-06-09 20:00:00 15.2 13 Este 22 Este 0 1011.2 0.3 67
2019-06-09 19:00:00 15.5 14 Este 21 Nordeste 0 1011.2 0.5 66
2019-06-09 18:00:00 15.4 17 Este 22 Este 0 1011.1 0.3 68
2019-06-09 17:00:00 15.5 15 Este 22 Este 0 1010.9 0 70
2019-06-09 16:00:00 15.6 14 Este 22 Este 0 1010.7 -0.2 70
2019-06-09 15:00:00 14.9 12 Este 21 Este 0 1010.8 0 71
2019-06-09 14:00:00 13.9 15 Sudeste 21 Este 0 1010.9 0.3 72
2019-06-09 13:00:00 13.2 15 Sudeste 23 Este 0 1010.9 0.8 75
2019-06-09 12:00:00 12.1 10 Este 25 Este 0 1010.8 0.9 76
2019-06-09 11:00:00 12 18 Este 31 Este 0.4 1010.6 1.1 76
2019-06-09 10:00:00 11.8 18 Nordeste 32 Nordeste 0.2 1010.1 1 76
2019-06-09 09:00:00 12.2 15 Nordeste 35 Norte 1.6 1009.9 0.7 72
2019-06-09 08:00:00 12.9 18 Nordeste 35 Norte 0.6 1009.5 0.1 84
2019-06-09 07:00:00 13.2 15 Nordeste 34 Nordeste 0 1009.1 -0.4 81
2019-06-09 06:00:00 13.3 13 Nordeste 30 Este 0 1009.2 -0.8 80
2019-06-09 05:00:00 13.3 23 Este 32 Este 0 1009.4 -0.8 78
2019-06-09 04:00:00 13.4 22 Nordeste 32 Nordeste 0 1009.5 -1.2 81
2019-06-09 03:00:00 13.3 19 Este 33 Este 0 1010 -1.4 81
2019-06-09 02:00:00 13.1 22 Este 35 Este 0 1010.2 -1.5 81
2019-06-09 01:00:00 12.9 21 Este 32 Este 0 1010.7 -0.7 78
2019-06-09 00:00:00 12.9 18 Este 27 Este 0 1011.4 -0.1 77
2019-06-08 23:00:00 12.9 16 Este 24 Este 0 1011.7 0.1 78
2019-06-08 22:00:00 13 16 Este 25 Este 0 1011.4 -0.1 74
2019-06-08 21:00:00 14.4 18 Este 29 Sudeste 0 1011.5 -0.7 68
2019-06-08 20:00:00 14.1 18 Este 24 Sudeste 0 1011.6 -0.7 69
2019-06-08 19:00:00 14.1 16 Este 24 Este 0 1011.5 -1.2 73
2019-06-08 18:00:00 13.4 8 Nordeste 16 Nordeste 0.2 1012.2 -0.4 74
2019-06-08 17:00:00 13 8 Nordeste 15 Norte 0.8 1012.3 -0.4 77
2019-06-08 16:00:00 13.6 5 Nordeste 18 Nordeste 0 1012.7 -0.4 70
2019-06-08 15:00:00 14.5 10 Nordeste 17 Nordeste 0 1012.6 -0.3 65
2019-06-08 14:00:00 15.4 8 Nordeste 15 Norte 0 1012.7 -0.4 65
2019-06-08 13:00:00 15.7 7 Norte 13 Norte 0 1013.1 0 66
2019-06-08 12:00:00 15.8 3 Norte 10 Norte 0 1012.9 0.1 65
2019-06-08 11:00:00 15.8 8 Oeste 11 Oeste 0 1013.1 0.6 67
2019-06-08 10:00:00 14.5 8 Oeste 14 Sudoeste 0 1013.1 0.8 70
2019-06-08 09:00:00 12.6 9 Sudoeste 24 Oeste 0 1012.8 0.5 73
2019-06-08 08:00:00 12.4 16 Oeste 27 Sudoeste 0 1012.5 0.2 74
2019-06-08 07:00:00 11.7 20 Oeste 31 Oeste 0 1012.3 0 75
2019-06-08 06:00:00 11.6 24 Oeste 35 Oeste 0 1012.3 -0.2 76
2019-06-08 05:00:00 11.8 29 Oeste 37 Sudoeste 0 1012.3 -0.2 76
2019-06-08 04:00:00 11.8 29 Oeste 38 Oeste 0 1012.3 -0.4 75
2019-06-08 03:00:00 11.8 24 Oeste 33 Oeste 0 1012.5 0.2 76
2019-06-08 02:00:00 11.9 23 Sudoeste 33 Oeste 0 1012.5 0.6 74
2019-06-08 01:00:00 12.2 29 Oeste 37 Sudoeste 0 1012.7 1.5 73
2019-06-08 00:00:00 12.4 26 Sudoeste 37 Oeste 0 1012.3 1.8 71
2019-06-07 23:00:00 12.7 28 Oeste 43 Oeste 0 1011.9 1.9 70
2019-06-07 22:00:00 13.4 39 Oeste 48 Oeste 0 1011.2 1.9 65
2019-06-07 21:00:00 14.8 42 Oeste 57 Oeste 0 1010.5 1.6 61
2019-06-07 20:00:00 15.5 45 Oeste 63 Oeste 0 1010 2 60
2019-06-07 19:00:00 15.5 46 Oeste 62 Oeste 0 1009.3 2 61
2019-06-07 18:00:00 16.1 50 Oeste 68 Oeste 0 1008.9 2.4 58
2019-06-07 17:00:00 16.1 55 Oeste 70 Oeste 0 1008 2.3 57
2019-06-07 16:00:00 16.3 54 Oeste 69 Oeste 0 1007.3 2.2 56
2019-06-07 15:00:00 15.8 58 Oeste 72 Oeste 0 1006.5 2.7 59
2019-06-07 14:00:00 14.2 54 Oeste 73 Oeste 0 1005.7 2.8 67
2019-06-07 13:00:00 15 49 Oeste 69 Oeste 0 1005.1 3.2 60
2019-06-07 12:00:00 15.4 59 Oeste 74 Oeste 0 1003.8 2.9 59
2019-06-07 11:00:00 14.7 62 Oeste 76 Oeste 0 1002.9 3.4 63
2019-06-07 10:00:00 14.2 63 Oeste 75 Oeste 0 1001.9 3.9 64
2019-06-07 09:00:00 13.7 62 Oeste 90 Oeste 0 1000.9 5.2 66
2019-06-07 08:00:00 13.3 67 Oeste 85 Oeste 0 999.5 4.5 70
2019-06-07 07:00:00 12.8 74 Oeste 95 Oeste 0 998 3.1 73
2019-06-07 06:00:00 11.7 82 Oeste 102 Oeste 0.8 995.7 2.2 77
2019-06-07 05:00:00 12.6 87 Oeste 100 Oeste 0 995 2.5 73
2019-06-07 04:00:00 11.6 71 Oeste 101 Oeste 0 994.9 3.6 79
2019-06-07 03:00:00 11.2 80 Oeste 104 Oeste 0.6 993.5 3 82
2019-06-07 02:00:00 11 77 Oeste 117 Oeste 1.6 992.5 3.7 83
2019-06-07 01:00:00 11.8 88 Oeste 120 Oeste 0 991.3 3.1 75
2019-06-07 00:00:00 11.8 95 Oeste 129 Oeste 0.2 990.5 2.8 74
2019-06-06 23:00:00 11.6 94 Oeste 127 Oeste 0 988.8 1.7 73
2019-06-06 22:00:00 11.2 78 Oeste 107 Sudoeste 0 988.2 2.6 80
2019-06-06 21:00:00 11.6 82 Oeste 111 Oeste 0 987.7 1.2 81
2019-06-06 20:00:00 12.4 80 Oeste 108 Oeste 0 987.1 0.2 78
2019-06-06 19:00:00 14.9 76 Oeste 108 Oeste 0 985.6 -2.7 62
2019-06-06 18:00:00 17 55 Oeste 86 Sudoeste 0 986.5 -3.3 64
2019-06-06 17:00:00 16.6 41 Sur 81 Sur 0 986.9 -5 63
2019-06-06 16:00:00 14.6 30 Sudeste 65 Este 0.4 988.3 -4.6 72
2019-06-06 15:00:00 13.3 42 Sudeste 62 Sudeste 1.4 989.8 -4.9 80
2019-06-06 14:00:00 12.6 33 Sudeste 57 Este 2.6 991.9 -4.5 78
2019-06-06 13:00:00 12.2 39 Sudeste 62 Este 0.8 992.9 -4.7 77
2019-06-06 12:00:00 12 37 Sudeste 52 Este 2.6 994.7 -3.7 79
2019-06-06 11:00:00 12.1 27 Sudeste 42 Sudeste 1.2 996.4 -2.6 71
2019-06-06 10:00:00 12.2 15 Sudeste 36 Sudoeste 0 997.6 -2.4 71
2019-06-06 09:00:00 12.5 21 Sudoeste 38 Sudoeste 0 998.4 -2.3 66
2019-06-06 08:00:00 12.4 20 Sudoeste 45 Sur 0 999 -2.6 64
2019-06-06 07:00:00 11.9 21 Sudoeste 30 Sur 0 1000 -2.4 69
2019-06-06 06:00:00 11.8 23 Sudoeste 37 Sudoeste 0 1000.7 -2.3 68
2019-06-06 05:00:00 11.8 20 Sudoeste 31 Oeste 0 1001.6 -1.6 72
2019-06-06 04:00:00 11.5 16 Sudoeste 28 Oeste 0 1002.4 -1.4 71
2019-06-06 03:00:00 11.3 20 Sudoeste 31 Oeste 0 1003 -1 71
2019-06-06 02:00:00 11.7 23 Oeste 37 Sudoeste 0 1003.2 -1 71
2019-06-06 01:00:00 11.9 29 Sudoeste 41 Sudoeste 0 1003.8 -0.3 72
2019-06-06 00:00:00 11.6 31 Oeste 53 Oeste 0 1004 0.3 67
2019-06-05 23:00:00 12.5 27 Sudoeste 40 Oeste 0 1004.2 0.8 69
2019-06-05 22:00:00 13.1 31 Oeste 46 Oeste 0 1004.1 0.4 64
2019-06-05 21:00:00 14.1 39 Oeste 55 Oeste 0 1003.7 0.3 62
2019-06-05 20:00:00 14.5 46 Oeste 56 Oeste 0 1003.4 -0.3 59
2019-06-05 19:00:00 14.7 48 Oeste 62 Oeste 0 1003.7 -0.3 59
2019-06-05 18:00:00 14.7 57 Oeste 73 Noroeste 0 1003.4 -0.6 55
2019-06-05 17:00:00 15.9 52 Oeste 61 Oeste 0 1003.7 -0.1 57
2019-06-05 16:00:00 15.5 51 Oeste 63 Oeste 0 1004 0.3 60
2019-06-05 15:00:00 16.6 46 Oeste 60 Oeste 0 1004 0.4 56
2019-06-05 14:00:00 16.5 46 Oeste 67 Oeste 0 1003.8 0.6 54
2019-06-05 13:00:00 15.8 46 Oeste 54 Oeste 0 1003.7 1 60
2019-06-05 12:00:00 15.3 42 Oeste 65 Noroeste 0 1003.6 1.3 60
2019-06-05 11:00:00 13.5 32 Noroeste 67 Oeste 0.2 1003.2 0.9 68
2019-06-05 10:00:00 15 38 Oeste 58 Oeste 0 1002.7 0.6 65
2019-06-05 09:00:00 13.5 45 Oeste 60 Noroeste 0 1002.3 0.3 64
2019-06-05 08:00:00 12.4 28 Oeste 45 Oeste 0 1002.3 0.4 81
2019-06-05 07:00:00 12.2 23 Noroeste 41 Noroeste 0.8 1002.1 0.2 78
2019-06-05 06:00:00 11.7 21 Noroeste 50 Noroeste 1 1002 0.2 82
2019-06-05 05:00:00 11.5 18 Sudoeste 55 Oeste 1.2 1001.9 -0.4 79
2019-06-05 04:00:00 12.7 19 Oeste 38 Noroeste 0 1001.9 -0.5 79
2019-06-05 03:00:00 12.8 31 Oeste 39 Oeste 0 1001.8 -0.6 79
2019-06-05 02:00:00 12.4 27 Oeste 39 Oeste 0 1002.3 0.1 81
2019-06-05 01:00:00 12.2 25 Oeste 47 Oeste 0.4 1002.4 1 82
2019-06-05 00:00:00 12.3 29 Oeste 52 Oeste 0.6 1002.4 1.1 81
2019-06-04 23:00:00 13.8 30 Oeste 53 Oeste 0 1002.2 0.8 77
2019-06-04 22:00:00 14 44 Oeste 60 Oeste 0 1001.4 0.4 68
2019-06-04 21:00:00 15.6 45 Oeste 54 Oeste 0 1001.3 0.4 67
2019-06-04 20:00:00 16.4 42 Oeste 57 Oeste 0 1001.4 0.3 67
2019-06-04 19:00:00 16.9 47 Oeste 59 Oeste 0 1001 0.3 66
2019-06-04 18:00:00 17.1 49 Oeste 62 Oeste 0 1000.9 0.4 67
2019-06-04 17:00:00 17.6 49 Oeste 63 Oeste 0 1001.1 0.8 65
2019-06-04 16:00:00 17.9 53 Oeste 66 Oeste 0 1000.7 0.3 65
2019-06-04 15:00:00 17.4 46 Oeste 71 Oeste 0 1000.5 0.5 64
2019-06-04 14:00:00 17.6 49 Oeste 57 Oeste 0 1000.3 0.8 63
2019-06-04 13:00:00 16.2 46 Oeste 57 Oeste 0 1000.4 1.6 67
2019-06-04 12:00:00 17.1 42 Oeste 59 Oeste 0 1000 2.6 68
2019-06-04 11:00:00 15.5 50 Oeste 63 Oeste 0 999.5 3 75
2019-06-04 10:00:00 14.6 53 Oeste 65 Noroeste 0 998.8 2.4 81
2019-06-04 09:00:00 14 60 Oeste 81 Oeste 0.8 997.4 0.7 89
2019-06-04 08:00:00 14.9 39 Oeste 57 Sudoeste 0 996.5 -1.4 80
2019-06-04 07:00:00 15.5 48 Oeste 75 Oeste 0 996.4 -2.4 73
2019-06-04 06:00:00 15.2 33 Sudoeste 51 Oeste 0 996.7 -2.8 71
2019-06-04 05:00:00 14.8 16 Sudoeste 31 Sudoeste 0 997.9 -2.8 71
2019-06-04 04:00:00 14.5 17 Sudoeste 41 Sudoeste 0 998.8 -3 72
2019-06-04 03:00:00 14.7 27 Sudoeste 39 Sudoeste 0 999.5 -2.9 70
2019-06-04 02:00:00 14.3 30 Sudoeste 40 Sudoeste 0 1000.7 -2.5 82
2019-06-04 01:00:00 14.5 31 Oeste 44 Oeste 0 1001.8 -1.6 84
2019-06-04 00:00:00 14.7 24 Oeste 31 Oeste 0 1002.4 -1.3 87
2019-06-03 23:00:00 14.6 11 Oeste 19 Oeste 0 1003.2 -0.6 86
2019-06-03 22:00:00 15.2 8 Oeste 12 Sudoeste 0 1003.4 -1 84
2019-06-03 21:00:00 15.4 6 Sudeste 15 Sudeste 0 1003.7 -1.3 82
2019-06-03 20:00:00 16 6 Sudeste 15 Sudeste 0 1003.8 -1.2 79
2019-06-03 19:00:00 15.7 8 Este 12 Este 0 1004.4 -1.1 80
2019-06-03 18:00:00 15.9 4 Norte 11 Norte 0 1005 -1 84
2019-06-03 17:00:00 15.4 7 Este 15 Este 0 1005 -1.4 81
2019-06-03 16:00:00 16.2 9 Este 17 Sudeste 0 1005.5 -1.6 81
2019-06-03 15:00:00 16.4 9 Este 18 Sudeste 0 1006 -1.2 84
2019-06-03 14:00:00 15.3 12 Este 17 Sudeste 0 1006.4 -1 87
2019-06-03 13:00:00 14.8 12 Este 18 Este 0 1007.1 -0.1 93
2019-06-03 12:00:00 14.5 12 Este 21 Este 0 1007.2 0.2 94
2019-06-03 11:00:00 14.1 10 Este 19 Nordeste 0.2 1007.4 0.8 95
2019-06-03 10:00:00 13.9 10 Este 21 Este 0 1007.2 0.5 95
2019-06-03 09:00:00 13.3 15 Nordeste 32 Norte 0.2 1007 0.8 95
2019-06-03 08:00:00 14.3 14 Norte 28 Nordeste 0.8 1006.6 0.3 95
2019-06-03 07:00:00 14.6 9 Norte 17 Nordeste 1 1006.7 -0.2 95
2019-06-03 06:00:00 14.8 12 Nordeste 18 Este 1 1006.2 -0.9 95
2019-06-03 05:00:00 14.8 13 Este 21 Este 0.2 1006.3 -1.3 95
2019-06-03 04:00:00 14.8 11 Este 23 Nordeste 0 1006.9 -0.3 95
2019-06-03 03:00:00 14.7 11 Nordeste 28 Nordeste 2.2 1007.1 -0.8 95
2019-06-03 02:00:00 15.1 7 Nordeste 16 Este 0.2 1007.6 0.2 94
2019-06-03 01:00:00 15.2 10 Este 17 Nordeste 0.4 1007.2 0.4 94
2019-06-03 00:00:00 15.2 12 Norte 36 Oeste 0.4 1007.9 1.7 93
2019-06-02 23:00:00 16.1 20 Oeste 32 Oeste 0 1007.4 1.4 92
2019-06-02 22:00:00 16.2 33 Oeste 50 Oeste 0 1006.8 1 90
2019-06-02 21:00:00 16.8 44 Oeste 54 Oeste 0 1006.2 0.3 86
2019-06-02 20:00:00 17.3 41 Oeste 54 Oeste 0 1006 0.6 84
2019-06-02 19:00:00 17.7 50 Oeste 60 Oeste 0 1005.8 0.2 82
2019-06-02 18:00:00 17.6 43 Oeste 66 Oeste 0 1005.9 0 80
2019-06-02 17:00:00 17.9 59 Oeste 72 Oeste 0 1005.4 -0.7 75
2019-06-02 16:00:00 18.7 45 Oeste 55 Oeste 0 1005.6 -0.9 72
2019-06-02 15:00:00 19.2 37 Oeste 50 Oeste 0 1005.9 -0.7 69
2019-06-02 14:00:00 19.5 36 Oeste 45 Oeste 0 1006.1 0.1 69
2019-06-02 13:00:00 19.2 23 Oeste 39 Oeste 0 1006.5 0.7 67
2019-06-02 12:00:00 17.5 34 Oeste 48 Oeste 0 1006.6 1.3 75
2019-06-02 11:00:00 16.8 33 Oeste 39 Oeste 0 1006 0.7 81
2019-06-02 10:00:00 15.4 32 Oeste 41 Oeste 0 1005.8 0.6 88
2019-06-02 09:00:00 14.9 39 Oeste 47 Oeste 0 1005.3 0.2 93
2019-06-02 08:00:00 14.6 34 Oeste 40 Oeste 0 1005.3 -0.1 93
2019-06-02 07:00:00 14.4 22 Oeste 32 Noroeste 0 1005.2 -0.3 93
2019-06-02 06:00:00 14.1 25 Oeste 36 Oeste 0 1005.1 -1.2 94
2019-06-02 05:00:00 14.5 18 Oeste 29 Noroeste 0 1005.4 -1.5 93
2019-06-02 04:00:00 14.1 0 Calma 16 Sudoeste 0 1005.5 -1.7 93
2019-06-02 03:00:00 14.3 13 Oeste 22 Oeste 0 1006.3 -1.2 93
2019-06-02 02:00:00 14.3 11 Oeste 17 Oeste 0 1006.9 -0.5 92
2019-06-02 01:00:00 14.8 12 Oeste 21 Noroeste 0 1007.2 0.4 91
2019-06-02 00:00:00 15.2 12 Oeste 17 Oeste 0 1007.5 1 89
2019-06-01 23:00:00 15.7 9 Oeste 17 Noroeste 0 1007.4 1.1 86
2019-06-01 22:00:00 17 10 Oeste 15 Oeste 0 1006.8 0.8 80
2019-06-01 21:00:00 19.1 14 Oeste 31 Oeste 0 1006.5 0.6 73
2019-06-01 20:00:00 19.9 24 Oeste 36 Oeste 0 1006.3 0 66
2019-06-01 19:00:00 21 24 Oeste 37 Noroeste 0 1006 -0.6 57
2019-06-01 18:00:00 20.9 22 Oeste 45 Oeste 0 1005.9 -1.2 60
2019-06-01 17:00:00 21.2 33 Oeste 51 Oeste 0 1006.3 -1.1 56
2019-06-01 16:00:00 20 26 Oeste 47 Oeste 0 1006.6 -0.8 71
2019-06-01 15:00:00 21.3 21 Oeste 37 Oeste 0 1007.1 -0.2 66
2019-06-01 14:00:00 22.8 17 Oeste 32 Oeste 0 1007.4 0.1 55
2019-06-01 13:00:00 22 18 Oeste 27 Oeste 0 1007.4 0.2 58
2019-06-01 12:00:00 21.6 13 Oeste 23 Oeste 0 1007.3 0.2 59
2019-06-01 11:00:00 20.7 16 Oeste 24 Oeste 0 1007.3 0.3 57
2019-06-01 10:00:00 19.8 14 Oeste 19 Oeste 0 1007.2 0.4 58
2019-06-01 09:00:00 19 11 Sudoeste 14 Sudoeste 0 1007.1 0.3 62
2019-06-01 08:00:00 18.1 8 Oeste 23 Oeste 0 1007 0.1 67
2019-06-01 07:00:00 17.8 18 Oeste 24 Oeste 0 1006.8 -0.4 67
2019-06-01 06:00:00 17.5 15 Oeste 19 Oeste 0 1006.8 -0.6 67
2019-06-01 05:00:00 17.7 10 Oeste 13 Oeste 0 1006.9 -0.7 67
2019-06-01 04:00:00 17.9 9 Oeste 12 Oeste 0 1007.2 -0.9 66
2019-06-01 03:00:00 19.1 6 Sudoeste 8 Oeste 0 1007.4 -1 60
2019-06-01 02:00:00 19.6 5 Oeste 7 Este 0 1007.6 -0.7 55
2019-06-01 01:00:00 20.6 5 Este 8 Este 0 1008.1 0 49
2019-06-01 00:00:00 20.6 6 Sudoeste 9 Oeste 0 1008.4 0.3 48
2019-05-31 23:00:00 22.8 5 Oeste 10 Oeste 0 1008.3 0.3 35
2019-05-31 22:00:00 24.2 9 Oeste 12 Oeste 0 1008.1 -0.2 32
2019-05-31 21:00:00 27.4 8 Oeste 12 Oeste 0 1008.1 -0.4 29
2019-05-31 20:00:00 29.4 5 Oeste 13 Oeste 0 1008 -0.5 32
2019-05-31 19:00:00 26 2 Oeste 14 Sudeste 0 1008.3 -0.3 48
2019-05-31 18:00:00 21.1 11 Sudeste 27 Sudeste 0 1008.5 -0.2 63
2019-05-31 17:00:00 20.6 22 Sudeste 42 Este 0 1008.5 -0.5 66
2019-05-31 16:00:00 19 36 Sudeste 49 Sudeste 0 1008.6 -0.6 74
2019-05-31 15:00:00 19.3 39 Sudeste 47 Sudeste 0 1008.7 -0.4 71
2019-05-31 14:00:00 18.8 40 Sudeste 46 Sudeste 0 1009 -0.2 72
2019-05-31 13:00:00 17.9 38 Sudeste 44 Sudeste 0 1009.2 -0.3 79
2019-05-31 12:00:00 17.9 37 Este 42 Sudeste 0 1009.1 -0.3 76
2019-05-31 11:00:00 19.5 30 Sudeste 43 Sudeste 0 1009.2 -0.5 69
2019-05-31 10:00:00 17.5 27 Sudeste 38 Sudeste 0 1009.5 0.1 77
2019-05-31 09:00:00 16.4 30 Sudeste 41 Sudeste 0 1009.4 -0.2 85
2019-05-31 08:00:00 15.2 26 Sudeste 41 Sudeste 0 1009.7 -0.4 93
2019-05-31 07:00:00 14.9 34 Sudeste 41 Sudeste 0 1009.4 -1 93
2019-05-31 06:00:00 15 32 Sudeste 46 Sudeste 0 1009.6 -1.5 92
2019-05-31 05:00:00 15 31 Sudeste 52 Sudeste 0 1010.1 -1.7 90
2019-05-31 04:00:00 15 36 Sudeste 49 Sudeste 0 1010.4 -2.1 88
2019-05-31 03:00:00 15.2 35 Sudeste 46 Sudeste 0 1011.1 -1.7 86
2019-05-31 02:00:00 15.4 36 Sudeste 44 Sudeste 0 1011.8 -1 85
2019-05-31 01:00:00 15.4 33 Este 42 Este 0 1012.5 0.1 87
2019-05-31 00:00:00 15.6 35 Este 44 Sudeste 0 1012.8 0.7 85
2019-05-30 23:00:00 15.7 38 Este 44 Este 0 1012.8 0.8 83
2019-05-30 22:00:00 15.9 36 Este 45 Sudeste 0 1012.4 -0.2 81
2019-05-30 21:00:00 16.7 39 Sudeste 49 Sudeste 0 1012.1 -0.8 78
2019-05-30 20:00:00 17.1 40 Sudeste 48 Sudeste 0 1012 -1 77
2019-05-30 19:00:00 17.5 37 Este 44 Este 0 1012.6 -0.4 76
2019-05-30 18:00:00 17.7 37 Este 45 Este 0 1012.9 -0.2 77
2019-05-30 17:00:00 17.6 38 Este 46 Sudeste 0 1013 -0.5 77
2019-05-30 16:00:00 17.5 40 Este 48 Sudeste 0 1013 -0.5 78
2019-05-30 15:00:00 17.6 39 Sudeste 46 Sudeste 0 1013.1 -0.4 77
2019-05-30 14:00:00 17.4 37 Este 45 Este 0 1013.5 -0.4 78
2019-05-30 13:00:00 17 38 Este 46 Sudeste 0 1013.5 -0.5 78
2019-05-30 12:00:00 16.4 40 Este 45 Sudeste 0 1013.5 -0.4 76
2019-05-30 11:00:00 16.5 32 Este 37 Sudeste 0 1013.9 0.2 82
2019-05-30 10:00:00 16.2 23 Sudeste 31 Sudeste 0 1014 0.6 83
2019-05-30 09:00:00 15.4 22 Sudeste 34 Sudeste 0 1013.9 0.7 86
2019-05-30 08:00:00 14.2 18 Este 32 Este 0 1013.7 0.5 88
2019-05-30 07:00:00 13.6 18 Este 29 Este 0 1013.4 -0.2 88
2019-05-30 06:00:00 13.8 26 Sudeste 37 Sudeste 0 1013.2 -0.8 87
2019-05-30 05:00:00 14 26 Sudeste 37 Sudeste 0 1013.2 -1.2 86
2019-05-30 04:00:00 14.1 27 Sudeste 37 Sudeste 0 1013.6 -1.1 86
2019-05-30 03:00:00 14.3 29 Sudeste 39 Este 0 1014 -1 85
2019-05-30 02:00:00 14.5 30 Sudeste 40 Este 0 1014.4 -0.6 84
2019-05-30 01:00:00 14.6 30 Sudeste 40 Este 0 1014.7 -0.1 83
2019-05-30 00:00:00 14.6 33 Sudeste 40 Este 0 1015 0.2 82
2019-05-29 23:00:00 14.7 31 Sudeste 44 Este 0 1015 0.5 83
2019-05-29 22:00:00 14.9 32 Sudeste 46 Sudeste 0 1014.8 0.2 81
2019-05-29 21:00:00 15.6 30 Este 49 Este 0 1014.8 0.1 77
2019-05-29 20:00:00 16 30 Este 44 Este 0 1014.5 -0.4 75
2019-05-29 19:00:00 16.6 30 Este 44 Este 0 1014.6 -0.4 73
2019-05-29 18:00:00 17 28 Este 45 Este 0 1014.7 -0.6 71
2019-05-29 17:00:00 17.1 30 Este 46 Este 0 1014.9 -1 71
2019-05-29 16:00:00 17.4 28 Este 45 Este 0 1015 -0.9 70
2019-05-29 15:00:00 17.3 30 Este 45 Este 0 1015.3 -0.4 71
2019-05-29 14:00:00 17.1 26 Este 38 Nordeste 0 1015.9 0.3 73
2019-05-29 13:00:00 16.8 27 Este 37 Este 0 1015.9 0.3 73
2019-05-29 12:00:00 16.8 25 Este 34 Este 0 1015.7 0.1 73
2019-05-29 11:00:00 17.2 14 Este 22 Este 0 1015.6 0.3 74
2019-05-29 10:00:00 15.8 17 Sudeste 22 Sudeste 0 1015.6 0.8 74
2019-05-29 09:00:00 15.7 9 Este 14 Este 0 1015.6 0.7 79
2019-05-29 08:00:00 14.2 7 Este 14 Este 0 1015.3 0.3 83
2019-05-29 07:00:00 12.9 13 Sudeste 16 Sudeste 0 1014.8 -0.5 83
2019-05-29 06:00:00 13 11 Sudeste 15 Sudeste 0 1014.9 -0.2 83
2019-05-29 05:00:00 13.6 10 Este 14 Sudeste 0 1015 -0.6 82
2019-05-29 04:00:00 13.8 7 Nordeste 12 Este 0 1015.3 -0.2 82
2019-05-29 03:00:00 13.7 8 Sudeste 18 Nordeste 0 1015.1 -0.2 80
2019-05-29 02:00:00 14.1 9 Nordeste 19 Nordeste 0 1015.6 0.4 80
2019-05-29 01:00:00 14 10 Nordeste 17 Este 0 1015.5 0.4 78
2019-05-29 00:00:00 13.7 11 Este 17 Nordeste 0 1015.3 0.6 78
2019-05-28 23:00:00 13.6 11 Este 21 Nordeste 0 1015.2 0.5 76
2019-05-28 22:00:00 14.4 6 Norte 18 Norte 0 1015.1 0.6 73
2019-05-28 21:00:00 15.7 7 Nordeste 19 Este 0 1014.7 0.4 68
2019-05-28 20:00:00 16.7 7 Norte 23 Norte 0 1014.7 0.4 66
2019-05-28 19:00:00 16.4 10 Norte 24 Nordeste 0 1014.5 0.4 65
2019-05-28 18:00:00 16.6 9 Nordeste 17 Nordeste 0 1014.3 0.3 64
2019-05-28 17:00:00 17 9 Norte 18 Nordeste 0 1014.3 0.3 62
2019-05-28 16:00:00 17.5 9 Nordeste 22 Norte 0 1014.1 0.5 66
2019-05-28 15:00:00 16.8 8 Nordeste 21 Norte 0 1014 0.7 65
2019-05-28 14:00:00 17.3 10 Norte 18 Norte 0 1014 0.9 65
2019-05-28 13:00:00 16.7 8 Norte 18 Norte 0 1013.6 0.9 67
2019-05-28 12:00:00 16 11 Norte 21 Norte 0 1013.3 1.2 68
2019-05-28 11:00:00 15.6 13 Norte 23 Norte 0 1013.1 1.4 68
2019-05-28 10:00:00 14.7 15 Norte 28 Norte 0 1012.7 1.4 73
2019-05-28 09:00:00 13.8 16 Norte 23 Nordeste 0 1012.1 1.1 75
2019-05-28 08:00:00 13.6 8 Norte 18 Norte 0 1011.7 0.7 77
2019-05-28 07:00:00 13.4 10 Norte 20 Norte 0 1011.3 0.4 78
2019-05-28 06:00:00 13.2 9 Norte 16 Norte 0 1011 0.1 77
2019-05-28 05:00:00 13.1 13 Nordeste 20 Norte 0 1011 -0.3 78
2019-05-28 04:00:00 13.1 10 Norte 18 Norte 0 1010.9 -0.6 78
2019-05-28 03:00:00 13.2 14 Norte 22 Norte 0 1010.9 -0.5 76
2019-05-28 02:00:00 13.4 14 Norte 22 Norte 0 1011.3 -0.1 76
2019-05-28 01:00:00 13.3 12 Nordeste 20 Nordeste 0 1011.5 0.5 77
2019-05-28 00:00:00 13.4 11 Norte 21 Nordeste 0 1011.4 0.7 75